Time;durP1;ratioP1;P1;durP2;ratioP2;P2;SDS_P1;SDS_P2;PMS_P1;PMS_P2;Temp;Humidity;BMP_temperature;BMP_pressure;BME280_temperature;BME280_humidity;BME280_pressure;Samples;Min_cycle;Max_cycle;Signal;HPM_P1;HPM_P2
2022/04/20 00:01:08;;;;;;;6.45;5.28;;;;;;;7.19;100.00;100941.94;5098338;28;20024;-81
2022/04/20 00:03:54;;;;;;;7.53;5.65;;;;;;;7.02;100.00;100941.94;5101407;28;20020;-81
2022/04/20 00:06:39;;;;;;;7.65;6.13;;;;;;;7.03;100.00;100938.44;5100026;28;20028;-81
2022/04/20 00:09:25;;;;;;;7.20;5.65;;;;;;;7.13;100.00;100944.53;5103151;28;20027;-82
2022/04/20 00:12:11;;;;;;;7.55;5.93;;;;;;;7.01;100.00;100947.13;5101890;28;20037;-80
2022/04/20 00:14:57;;;;;;;7.28;5.88;;;;;;;7.08;100.00;100943.66;5101098;28;20028;-81
2022/04/20 00:17:42;;;;;;;7.07;5.78;;;;;;;7.18;100.00;100948.00;5098589;28;20028;-81
2022/04/20 00:20:29;;;;;;;6.90;5.63;;;;;;;6.93;100.00;100952.34;5099185;28;20487;-81
2022/04/20 00:23:15;;;;;;;7.10;5.07;;;;;;;7.10;100.00;100953.22;5085966;28;20054;-81
2022/04/20 00:26:00;;;;;;;6.82;5.68;;;;;;;7.24;100.00;100964.50;5100550;28;20099;-81
2022/04/20 00:28:46;;;;;;;5.90;5.15;;;;;;;6.83;100.00;100962.75;5097994;28;20024;-80
2022/04/20 00:31:32;;;;;;;6.68;5.60;;;;;;;6.68;100.00;100974.00;5086435;28;20028;-80
2022/04/20 00:34:18;;;;;;;5.80;5.20;;;;;;;6.75;100.00;100972.28;5085244;28;20048;-81
2022/04/20 00:37:04;;;;;;;7.82;5.53;;;;;;;6.70;100.00;100972.25;5098736;28;20032;-80
2022/04/20 00:39:49;;;;;;;7.28;5.72;;;;;;;7.04;100.00;100967.97;5099139;28;20083;-80
2022/04/20 00:42:39;;;;;;;7.15;5.55;;;;;;;7.10;100.00;100960.16;5083012;28;20019;-81
2022/04/20 00:45:25;;;;;;;7.63;5.93;;;;;;;6.95;100.00;100955.81;5084284;28;20448;-80
2022/04/20 00:48:11;;;;;;;7.45;5.75;;;;;;;6.84;100.00;100949.75;5096453;28;20031;-81
2022/04/20 00:50:57;;;;;;;8.27;5.85;;;;;;;6.73;100.00;100954.06;5101249;28;20028;-80
2022/04/20 00:53:43;;;;;;;7.03;6.10;;;;;;;7.13;100.00;100947.13;5096513;28;20039;-80
2022/04/20 00:56:29;;;;;;;7.90;5.88;;;;;;;7.01;100.00;100945.41;5097253;28;20043;-81
2022/04/20 00:59:20;;;;;;;7.68;5.30;;;;;;;7.24;100.00;100948.84;5096759;28;20032;-81
2022/04/20 01:02:05;;;;;;;7.63;5.50;;;;;;;7.26;100.00;100943.66;5099848;28;20028;-81
2022/04/20 01:04:51;;;;;;;9.98;6.10;;;;;;;6.68;100.00;100950.59;5100228;28;20024;-80
2022/04/20 01:07:37;;;;;;;7.60;5.93;;;;;;;6.90;100.00;100943.63;5102474;28;20035;-81
2022/04/20 01:10:23;;;;;;;8.00;6.13;;;;;;;7.23;100.00;100954.09;5103754;28;20036;-81
2022/04/20 01:13:10;;;;;;;7.57;5.93;;;;;;;7.30;100.00;100950.59;5103377;28;20031;-81
2022/04/20 01:15:56;;;;;;;9.32;6.70;;;;;;;7.11;100.00;100944.53;5105665;28;20039;-81
2022/04/20 01:18:43;;;;;;;6.95;5.90;;;;;;;6.98;100.00;100941.91;5088923;28;20436;-81
2022/04/20 01:21:29;;;;;;;7.78;6.18;;;;;;;6.92;100.00;100944.53;5093034;28;20032;-82
2022/04/20 01:24:15;;;;;;;8.02;6.05;;;;;;;6.76;100.00;100945.38;5090817;28;20107;-81
2022/04/20 01:27:02;;;;;;;8.38;6.40;;;;;;;7.16;100.00;100937.56;5090672;28;20097;-81
2022/04/20 01:29:48;;;;;;;10.18;6.60;;;;;;;7.01;100.00;100937.59;5105243;28;20147;-80
2022/04/20 01:32:35;;;;;;;7.95;6.15;;;;;;;6.75;100.00;100928.88;5087950;28;20016;-80
2022/04/20 01:35:21;;;;;;;7.25;5.80;;;;;;;6.88;100.00;100940.19;5102981;28;20360;-81
2022/04/20 01:38:07;;;;;;;9.20;6.53;;;;;;;7.14;100.00;100936.72;5101266;28;20467;-80
2022/04/20 01:40:53;;;;;;;7.70;6.38;;;;;;;6.69;100.00;100936.69;5101048;28;20028;-80
2022/04/20 01:43:38;;;;;;;7.40;6.10;;;;;;;6.56;100.00;100934.94;5089010;28;20084;-81
2022/04/20 01:46:24;;;;;;;6.75;5.72;;;;;;;6.70;100.00;100922.81;5100448;28;20028;-80
2022/04/20 01:49:10;;;;;;;7.82;6.07;;;;;;;6.90;100.00;100922.81;5099981;28;20048;-80
2022/04/20 01:51:55;;;;;;;7.78;6.00;;;;;;;6.81;100.00;100920.19;5102620;28;20030;-80
2022/04/20 01:54:41;;;;;;;9.02;5.88;;;;;;;6.86;100.00;100916.75;5104173;28;20130;-80
2022/04/20 01:57:27;;;;;;;8.93;6.10;;;;;;;6.87;100.00;100912.41;5101582;28;20024;-81
2022/04/20 02:00:14;;;;;;;7.03;5.82;;;;;;;6.92;100.00;100911.56;5091239;28;20016;-81
2022/04/20 02:02:59;;;;;;;6.13;5.30;;;;;;;6.87;100.00;100907.22;5092130;28;20028;-81
2022/04/20 02:05:45;;;;;;;7.32;5.90;;;;;;;6.80;100.00;100914.16;5089901;28;20020;-81
2022/04/20 02:08:31;;;;;;;6.80;5.78;;;;;;;6.79;100.00;100919.34;5100408;28;20024;-81
2022/04/20 02:11:17;;;;;;;8.63;5.97;;;;;;;6.92;100.00;100927.19;5104694;28;20032;-81
2022/04/20 02:14:02;;;;;;;6.55;5.60;;;;;;;6.73;100.00;100928.03;5101768;28;20024;-80
2022/04/20 02:16:48;;;;;;;7.13;5.88;;;;;;;6.87;100.00;100923.69;5101267;28;20024;-80
2022/04/20 02:19:34;;;;;;;8.80;5.80;;;;;;;6.78;100.00;100923.69;5096256;28;20052;-82
2022/04/20 02:22:20;;;;;;;6.93;6.13;;;;;;;6.54;100.00;100935.78;5105204;28;20058;-81
2022/04/20 02:25:07;;;;;;;9.00;6.05;;;;;;;6.58;100.00;100927.97;5091255;28;20038;-80
2022/04/20 02:27:52;;;;;;;8.20;6.35;;;;;;;6.55;100.00;100929.72;5101111;28;20039;-80
2022/04/20 02:30:38;;;;;;;8.40;6.47;;;;;;;6.51;100.00;100938.41;5099468;28;20031;-80
2022/04/20 02:33:24;;;;;;;9.10;5.70;;;;;;;6.23;100.00;100940.03;5101951;28;20372;-80
2022/04/20 02:36:10;;;;;;;9.13;6.00;;;;;;;6.56;100.00;100947.06;5086990;28;20020;-80
2022/04/20 02:38:56;;;;;;;9.07;6.32;;;;;;;6.50;100.00;100950.53;5087133;28;20028;-79
2022/04/20 02:41:42;;;;;;;8.50;5.90;;;;;;;6.40;100.00;100950.50;5104626;28;20059;-80
2022/04/20 02:44:28;;;;;;;7.25;5.90;;;;;;;6.34;100.00;100953.94;5089671;28;20021;-80
2022/04/20 02:47:16;;;;;;;8.05;6.30;;;;;;;6.32;100.00;100955.69;5102665;28;20024;-80
2022/04/20 02:50:01;;;;;;;7.60;5.95;;;;;;;6.41;100.00;100947.91;5105927;28;20496;-81
2022/04/20 02:52:47;;;;;;;8.35;6.57;;;;;;;6.44;100.00;100947.03;5105569;28;20032;-80
2022/04/20 02:55:33;;;;;;;9.70;6.05;;;;;;;6.09;100.00;100949.53;5087427;28;20052;-82
2022/04/20 02:58:19;;;;;;;7.47;5.88;;;;;;;5.92;100.00;100945.97;5102597;28;20361;-81
2022/04/20 03:01:06;;;;;;;8.48;6.10;;;;;;;5.60;100.00;100936.22;5102566;28;20027;-81
2022/04/20 03:03:51;;;;;;;8.10;5.40;;;;;;;5.45;100.00;100937.00;5101923;28;20023;-81
2022/04/20 03:06:37;;;;;;;9.45;6.28;;;;;;;5.61;100.00;100944.03;5100921;28;20024;-80
2022/04/20 03:09:23;;;;;;;7.60;6.05;;;;;;;5.60;100.00;100931.03;5101186;28;20028;-81
2022/04/20 03:12:10;;;;;;;7.88;6.13;;;;;;;5.72;100.00;100929.38;5102093;28;20087;-82
2022/04/20 03:14:56;;;;;;;7.97;6.05;;;;;;;5.70;100.00;100932.84;5104472;28;20054;-81
2022/04/20 03:17:42;;;;;;;7.57;6.03;;;;;;;5.95;100.00;100942.53;5102291;28;20028;-82
2022/04/20 03:20:27;;;;;;;10.18;6.05;;;;;;;5.89;100.00;100956.38;5104068;28;20024;-80
2022/04/20 03:23:14;;;;;;;9.82;6.07;;;;;;;5.82;100.00;100956.34;5103502;28;20020;-81
2022/04/20 03:26:00;;;;;;;7.60;5.63;;;;;;;5.67;100.00;100959.69;5103118;28;20063;-81
2022/04/20 03:28:45;;;;;;;7.45;6.28;;;;;;;5.92;100.00;100959.00;5088433;28;20475;-80
2022/04/20 03:31:34;;;;;;;7.93;6.25;;;;;;;5.73;100.00;100962.31;5101444;28;20032;-80
2022/04/20 03:34:20;;;;;;;9.85;6.07;;;;;;;5.54;100.00;100954.41;5088563;28;20082;-81
2022/04/20 03:37:07;;;;;;;7.63;6.22;;;;;;;5.56;100.00;100958.75;5102130;28;20524;-82
2022/04/20 03:39:54;;;;;;;9.40;6.88;;;;;;;5.77;100.00;100952.78;5103695;28;20055;-80
2022/04/20 03:42:41;;;;;;;11.55;7.70;;;;;;;5.47;100.00;100951.75;5102534;28;20028;-82
2022/04/20 03:45:26;;;;;;;9.68;6.72;;;;;;;5.73;100.00;100953.63;5090620;28;20029;-81
2022/04/20 03:48:12;;;;;;;9.50;6.80;;;;;;;5.67;100.00;100956.19;5103045;28;20108;-82
2022/04/20 03:50:58;;;;;;;12.88;7.25;;;;;;;5.51;100.00;100959.56;5103731;28;20039;-82
2022/04/20 03:53:45;;;;;;;10.75;7.43;;;;;;;5.72;100.00;100964.88;5104355;28;20456;-81
2022/04/20 03:57:03;;;;;;;14.10;8.50;;;;;;;5.78;100.00;100962.34;5089903;28;20059;-82
2022/04/20 03:59:37;;;;;;;15.65;8.05;;;;;;;5.74;100.00;100968.38;5103757;28;20039;-82
2022/04/20 04:02:23;;;;;;;18.27;8.27;;;;;;;5.72;100.00;100973.56;5100872;28;20028;-82
2022/04/20 04:05:09;;;;;;;20.08;8.65;;;;;;;5.78;100.00;100965.78;5101396;28;20020;-80
2022/04/20 04:07:55;;;;;;;20.17;12.30;;;;;;;5.64;100.00;100967.44;5088517;28;20108;-81
2022/04/20 04:10:40;;;;;;;14.68;10.93;;;;;;;5.82;100.00;100964.97;5099962;28;20024;-82
2022/04/20 04:13:26;;;;;;;22.83;11.60;;;;;;;6.23;100.00;100966.03;5101148;28;20024;-82
2022/04/20 04:16:12;;;;;;;18.38;10.82;;;;;;;6.14;100.00;100978.16;5088456;28;20045;-82
2022/04/20 04:18:58;;;;;;;14.55;10.43;;;;;;;6.06;100.00;100978.09;5101858;28;20032;-82
2022/04/20 04:21:43;;;;;;;17.98;10.70;;;;;;;5.87;100.00;100978.88;5102250;28;20028;-82
2022/04/20 04:24:35;;;;;;;18.98;9.90;;;;;;;6.05;100.00;100983.31;5101595;28;20044;-81
2022/04/20 04:27:21;;;;;;;25.05;11.00;;;;;;;6.38;100.00;100989.53;5086407;28;20024;-82
2022/04/20 04:30:07;;;;;;;24.60;13.00;;;;;;;6.64;100.00;100995.69;5084052;28;20028;-82
2022/04/20 04:32:53;;;;;;;22.83;12.13;;;;;;;6.69;100.00;100999.16;5087492;28;20090;-81
2022/04/20 04:35:39;;;;;;;17.90;11.07;;;;;;;6.46;100.00;101003.44;5101088;28;20375;-81
2022/04/20 04:38:31;;;;;;;23.25;12.95;;;;;;;6.43;100.00;101013.81;5103255;28;20081;-81
2022/04/20 04:41:16;;;;;;;22.38;12.90;;;;;;;6.23;100.00;101015.47;5102989;28;20073;-81
2022/04/20 04:44:02;;;;;;;20.98;13.52;;;;;;;6.20;100.00;101019.78;5084285;28;20020;-78
2022/04/20 04:49:53;;;;;;;22.73;12.40;;;;;;;6.27;100.00;101017.22;5099856;28;20024;-79
2022/04/20 04:52:38;;;;;;;22.42;13.65;;;;;;;6.13;100.00;101018.03;5099163;28;20052;-80
2022/04/20 04:55:24;;;;;;;19.88;11.52;;;;;;;5.95;100.00;101013.59;5100991;28;20028;-80
2022/04/20 04:58:10;;;;;;;21.08;10.63;;;;;;;6.13;100.00;101016.31;5101895;28;20024;-79
2022/04/20 05:00:57;;;;;;;18.00;11.50;;;;;;;6.23;100.00;101015.47;5097285;28;20031;-79
2022/04/20 05:03:43;;;;;;;21.15;10.38;;;;;;;6.64;100.00;101023.44;5082756;28;20396;-78
2022/04/20 05:06:29;;;;;;;17.42;9.77;;;;;;;6.69;100.00;101012.19;5097564;28;20020;-78
2022/04/20 05:09:15;;;;;;;16.17;9.40;;;;;;;6.93;100.00;101014.84;5095045;28;20023;-79
2022/04/20 05:12:01;;;;;;;28.45;9.75;;;;;;;7.19;100.00;101012.28;5094912;28;20067;-79
2022/04/20 05:14:47;;;;;;;21.25;8.50;;;;;;;7.13;100.00;101007.06;5095561;28;20032;-78
2022/04/20 05:17:32;;;;;;;12.63;8.52;;;;;;;7.51;100.00;101008.81;5094966;28;20024;-78
2022/04/20 05:20:21;;;;;;;11.35;7.60;;;;;;;7.64;100.00;101009.69;5095252;28;20032;-77
2022/04/20 05:23:08;;;;;;;10.68;7.00;;;;;;;7.59;100.00;101001.00;5094491;28;20051;-79
2022/04/20 05:25:54;;;;;;;11.23;6.90;;;;;;;7.71;100.00;101008.78;5081635;28;20054;-78
2022/04/20 05:28:39;;;;;;;8.80;6.72;;;;;;;8.23;100.00;100999.97;5094947;28;20089;-78
2022/04/20 05:31:25;;;;;;;16.25;7.80;;;;;;;8.14;100.00;100995.66;5080241;28;20072;-79
2022/04/20 05:34:11;;;;;;;9.68;7.00;;;;;;;8.27;100.00;100996.50;5095376;28;20056;-78
2022/04/20 05:43:06;;;;;;;11.10;6.82;;;;;;;8.17;100.00;100992.16;5093820;28;20016;-78
2022/04/20 05:45:52;;;;;;;9.95;7.35;;;;;;;8.39;100.00;100991.22;5079438;28;20078;-77
2022/04/20 05:48:38;;;;;;;13.57;7.78;;;;;;;8.89;100.00;101000.53;5096941;28;20028;-79
2022/04/20 05:51:24;;;;;;;16.15;10.20;;;;;;;8.95;100.00;100984.81;5081189;28;20039;-79
2022/04/20 05:54:10;;;;;;;17.17;9.48;;;;;;;8.85;100.00;100985.75;5096243;28;20453;-79
2022/04/20 05:56:55;;;;;;;18.15;9.20;;;;;;;8.70;100.00;100982.38;5096322;28;20042;-79
2022/04/20 05:59:41;;;;;;;20.38;10.60;;;;;;;9.04;100.00;100981.25;5096605;28;20031;-79
2022/04/20 06:02:27;;;;;;;15.23;10.07;;;;;;;9.38;100.00;100973.16;5081222;28;20516;-78
2022/04/20 06:05:13;;;;;;;20.73;10.23;;;;;;;9.40;100.00;100967.91;5097328;28;20448;-79
2022/04/20 06:07:58;;;;;;;17.13;10.38;;;;;;;9.93;100.00;100969.13;5096673;28;20020;-78
2022/04/20 06:10:46;;;;;;;14.48;8.55;;;;;;;9.62;100.00;100972.91;5097698;28;20028;-78
2022/04/20 06:13:32;;;;;;;13.20;8.98;;;;;;;9.66;100.00;100963.31;5096635;28;20102;-78
2022/04/20 06:16:18;;;;;;;15.45;9.00;;;;;;;10.20;100.00;100967.97;5097623;28;20102;-78
2022/04/20 06:19:04;;;;;;;15.52;8.73;;;;;;;9.96;100.00;100965.59;5096351;28;20422;-78
2022/04/20 06:21:50;;;;;;;13.20;9.18;;;;;;;10.52;100.00;100963.19;5096172;28;20035;-79
2022/04/20 06:24:36;;;;;;;15.57;8.93;;;;;;;10.30;100.00;100959.13;5082690;28;20029;-78
2022/04/20 06:27:30;;;;;;;19.65;9.70;;;;;;;10.55;100.00;100960.53;5098952;28;20139;-77
2022/04/20 06:30:16;;;;;;;19.33;9.68;;;;;;;10.37;100.00;100963.38;5106093;28;20067;-77
2022/04/20 06:33:02;;;;;;;11.60;7.95;;;;;;;10.48;100.00;100961.50;5097739;28;20044;-79
2022/04/20 06:35:48;;;;;;;15.07;8.07;;;;;;;10.97;100.00;100959.06;5095862;28;20023;-74
2022/04/20 06:38:34;;;;;;;13.68;7.57;;;;;;;10.86;100.00;100960.97;5095934;28;20034;-78
2022/04/20 06:41:20;;;;;;;14.05;8.10;;;;;;;11.27;100.00;100959.44;5096439;28;20429;-78
2022/04/20 06:44:06;;;;;;;11.68;7.72;;;;;;;11.62;100.00;100943.13;5082712;28;20114;-78
2022/04/20 06:46:55;;;;;;;13.85;8.05;;;;;;;11.53;100.00;100949.34;5082082;28;20036;-78
2022/04/20 06:49:42;;;;;;;17.17;8.73;;;;;;;11.11;100.00;100949.22;5096321;28;20032;-78
2022/04/20 06:58:36;;;;;;;17.15;10.30;;;;;;;11.64;100.00;100946.56;5097467;28;20051;-78
2022/04/20 07:01:22;;;;;;;21.85;9.95;;;;;;;11.88;100.00;100941.75;5095850;28;20482;-78
2022/04/20 07:04:07;;;;;;;15.15;8.35;;;;;;;11.90;100.00;100942.56;5095008;28;20459;-78
2022/04/20 07:06:53;;;;;;;8.68;5.05;;;;;;;12.06;97.20;100946.63;5095578;28;20030;-78
2022/04/20 07:09:39;;;;;;;10.82;5.90;;;;;;;12.71;94.75;100937.34;5094830;28;20024;-78
2022/04/20 07:12:25;;;;;;;14.60;9.32;;;;;;;12.90;96.97;100936.88;5096478;28;20024;-77
2022/04/20 07:15:11;;;;;;;6.78;4.45;;;;;;;12.25;94.76;100940.09;5095363;28;20039;-77
2022/04/20 07:17:56;;;;;;;6.38;4.68;;;;;;;12.81;90.15;100936.22;5095240;28;20024;-79
2022/04/20 07:20:42;;;;;;;5.45;4.15;;;;;;;12.47;90.93;100930.00;5094990;28;20368;-78
2022/04/20 07:23:28;;;;;;;11.00;4.57;;;;;;;12.98;87.71;100934.13;5081849;28;20020;-77
2022/04/20 07:26:13;;;;;;;7.60;3.88;;;;;;;13.00;86.86;100927.06;5105282;28;20062;-77
2022/04/20 07:28:59;;;;;;;6.72;4.60;;;;;;;13.13;83.31;100923.22;5095753;28;20375;-77
2022/04/20 07:31:46;;;;;;;4.82;4.07;;;;;;;13.63;78.47;100923.66;5082211;28;20051;-78
2022/04/20 07:34:31;;;;;;;4.35;3.72;;;;;;;12.55;79.69;100928.06;5093039;28;20165;-78
2022/04/20 07:37:17;;;;;;;7.95;4.03;;;;;;;13.30;78.26;100921.91;5092983;28;20031;-78
2022/04/20 07:40:03;;;;;;;6.00;3.63;;;;;;;13.69;75.01;100917.34;5095143;28;20058;-78
2022/04/20 07:42:54;;;;;;;4.78;3.70;;;;;;;13.53;74.51;100916.91;5093206;28;20020;-78
2022/04/20 07:45:40;;;;;;;5.00;3.70;;;;;;;13.70;75.78;100925.22;5080929;28;20046;-78
2022/04/20 07:48:25;;;;;;;5.47;3.83;;;;;;;13.44;77.48;100924.19;5093305;28;20345;-78
2022/04/20 07:51:13;;;;;;;4.45;3.60;;;;;;;13.94;77.47;100928.94;5093690;28;20023;-78
2022/04/20 07:53:58;;;;;;;5.50;3.80;;;;;;;13.59;76.82;100924.63;5092982;28;20365;-76
2022/04/20 07:56:44;;;;;;;5.55;3.90;;;;;;;13.37;74.92;100922.59;5094263;28;20070;-77
2022/04/20 07:59:30;;;;;;;6.20;4.18;;;;;;;13.74;73.57;100926.88;5080597;28;20030;-78
2022/04/20 08:02:17;;;;;;;6.85;3.78;;;;;;;13.86;69.75;100923.91;5093684;28;20028;-78
2022/04/20 08:05:03;;;;;;;5.47;3.63;;;;;;;14.53;69.46;100913.19;5093114;28;20058;-77
2022/04/20 08:07:49;;;;;;;6.03;4.05;;;;;;;14.26;69.26;100908.72;5093606;28;20051;-78
2022/04/20 08:10:36;;;;;;;4.85;4.20;;;;;;;14.83;68.07;100901.66;5093152;28;20475;-77
2022/04/20 08:16:29;;;;;;;10.52;3.80;;;;;;;14.65;67.29;100896.09;5093068;28;20028;-79
2022/04/20 08:19:15;;;;;;;12.60;4.30;;;;;;;15.09;64.04;100899.94;5079966;28;20081;-79
2022/04/20 08:22:00;;;;;;;5.03;3.80;;;;;;;14.96;61.83;100896.88;5093043;28;20016;-78
2022/04/20 08:24:47;;;;;;;5.63;4.05;;;;;;;14.83;63.29;100890.22;5078718;28;20051;-78
2022/04/20 08:27:46;;;;;;;9.15;3.80;;;;;;;14.83;62.61;100899.03;5093858;28;20508;-81
2022/04/20 08:30:34;;;;;;;5.45;3.40;;;;;;;14.48;65.30;100901.03;5092961;28;20456;-80
2022/04/20 08:33:21;;;;;;;5.10;3.15;;;;;;;14.83;61.55;100906.94;5078385;28;203833;-79
2022/04/20 08:36:07;;;;;;;3.45;3.15;;;;;;;14.16;62.41;100909.84;5073311;28;20490;-78
2022/04/20 08:38:53;;;;;;;11.45;3.72;;;;;;;14.70;63.07;100910.88;5094583;28;20020;-78
2022/04/20 08:41:41;;;;;;;4.85;3.80;;;;;;;15.09;62.27;100915.78;5082278;28;20027;-80
2022/04/20 08:44:28;;;;;;;4.75;3.83;;;;;;;14.67;63.18;100913.59;5082261;28;20015;-81
2022/04/20 08:47:18;;;;;;;4.53;3.08;;;;;;;15.38;60.71;100905.19;5081769;28;20034;-77
2022/04/20 08:50:06;;;;;;;3.67;3.20;;;;;;;14.13;63.56;100907.31;5082338;28;20088;-78
2022/04/20 08:52:55;;;;;;;5.50;3.58;;;;;;;15.09;62.10;100910.50;5099496;28;20478;-81
2022/04/20 08:55:41;;;;;;;6.43;4.03;;;;;;;14.71;61.76;100909.13;5085858;28;20028;-80
2022/04/20 08:58:27;;;;;;;16.23;4.45;;;;;;;15.31;61.93;100915.03;5081835;28;20036;-80
2022/04/20 09:01:14;;;;;;;11.88;4.40;;;;;;;15.38;63.61;100916.59;5081170;28;20518;-79
2022/04/20 09:04:01;;;;;;;3.92;3.45;;;;;;;15.60;61.72;100925.53;5081173;28;20028;-79
2022/04/20 09:06:49;;;;;;;6.93;4.85;;;;;;;15.22;63.23;100919.78;5082318;28;20024;-79
2022/04/20 09:09:36;;;;;;;6.13;4.47;;;;;;;15.18;62.60;100916.34;5093636;28;20039;-77
2022/04/20 09:12:26;;;;;;;6.00;3.70;;;;;;;14.60;64.60;100911.22;5092928;28;20024;-76
2022/04/20 09:15:27;;;;;;;4.00;3.35;;;;;;;15.00;64.95;100919.59;5094035;28;20429;-79
2022/04/20 09:18:12;;;;;;;3.92;3.50;;;;;;;14.44;66.94;100917.88;5092769;28;20443;-77
2022/04/20 09:21:05;;;;;;;4.00;3.20;;;;;;;14.14;68.16;100913.44;5093501;28;20072;-78
2022/04/20 09:24:07;;;;;;;15.48;10.93;;;;;;;15.75;64.37;100905.63;5092521;28;20039;-77
2022/04/20 09:26:56;;;;;;;8.88;3.90;;;;;;;14.67;64.53;100903.06;5094881;28;20059;-78
2022/04/20 09:29:52;;;;;;;3.40;3.10;;;;;;;14.42;61.41;100902.09;5096842;28;20130;-77
2022/04/20 09:32:40;;;;;;;4.38;3.53;;;;;;;14.52;60.45;100902.69;5082212;28;20500;-78
2022/04/20 09:35:26;;;;;;;5.55;3.13;;;;;;;15.01;60.29;100892.31;5083396;28;20046;-78
2022/04/20 09:38:21;;;;;;;5.68;3.13;;;;;;;15.83;58.91;100898.28;5084497;28;20067;-77
2022/04/20 09:41:09;;;;;;;5.13;3.08;;;;;;;15.87;54.91;100906.03;5085117;28;20108;-76
2022/04/20 09:50:49;;;;;;;3.42;3.13;;;;;;;15.95;47.90;100898.69;5097326;28;20468;-80
2022/04/20 09:53:35;;;;;;;3.03;2.63;;;;;;;16.20;48.10;100898.66;5083527;28;20123;-80
2022/04/20 09:56:27;;;;;;;4.07;3.20;;;;;;;16.25;47.55;100888.75;5097509;28;20098;-77
2022/04/20 09:59:13;;;;;;;3.80;2.90;;;;;;;16.10;47.07;100900.78;5103477;28;20024;-76
2022/04/20 10:02:10;;;;;;;3.30;2.70;;;;;;;15.63;48.10;100891.06;5108130;28;20464;-79
2022/04/20 10:04:57;;;;;;;2.60;2.40;;;;;;;14.97;44.46;100892.44;5096916;28;20100;-76
2022/04/20 10:07:43;;;;;;;5.43;2.80;;;;;;;15.43;45.36;100887.41;5097502;28;20127;-77
2022/04/20 10:10:34;;;;;;;5.07;3.20;;;;;;;14.88;47.85;100875.16;5096730;28;20119;-79
2022/04/20 10:13:29;;;;;;;4.53;3.10;;;;;;;15.93;47.29;100883.81;5098792;28;20453;-80
2022/04/20 10:16:15;;;;;;;5.13;2.70;;;;;;;15.97;47.50;100875.72;5096520;28;20119;-79
2022/04/20 10:19:01;;;;;;;5.50;3.30;;;;;;;15.70;47.70;100870.56;5097837;28;20024;-79
2022/04/20 10:21:53;;;;;;;3.75;2.90;;;;;;;16.51;46.84;100863.06;5095847;28;20039;-79
2022/04/20 10:24:42;;;;;;;9.98;4.35;;;;;;;16.08;45.98;100870.88;5095964;28;20020;-80
2022/04/20 10:27:38;;;;;;;4.07;3.47;;;;;;;15.34;48.13;100869.22;5096252;28;20070;-80
2022/04/20 10:30:57;;;;;;;4.53;3.38;;;;;;;16.38;47.24;100860.91;5082201;28;20028;-79
2022/04/20 10:33:44;;;;;;;3.72;2.88;;;;;;;15.82;46.91;100864.84;5096712;28;20360;-79
2022/04/20 10:36:32;;;;;;;5.45;4.90;;;;;;;15.59;47.18;100864.81;5095737;28;20027;-78
2022/04/20 10:39:27;;;;;;;7.13;4.80;;;;;;;15.82;48.83;100859.53;5089937;28;20538;-80
2022/04/20 10:42:13;;;;;;;3.65;3.25;;;;;;;15.84;48.38;100863.00;5108787;28;20038;-81
2022/04/20 10:45:00;;;;;;;4.57;3.15;;;;;;;16.12;47.17;100855.78;5097375;28;20028;-80
2022/04/20 10:47:55;;;;;;;3.63;3.13;;;;;;;16.22;46.76;100849.22;5097557;28;20028;-81
2022/04/20 10:50:41;;;;;;;6.03;3.10;;;;;;;15.62;47.61;100851.47;5094940;28;20051;-80
2022/04/20 10:53:29;;;;;;;6.43;3.25;;;;;;;15.94;47.24;100846.75;5097975;28;20024;-80
2022/04/20 10:56:17;;;;;;;3.30;3.00;;;;;;;15.71;47.36;100849.38;5097492;28;20023;-80
2022/04/20 10:59:06;;;;;;;5.25;2.67;;;;;;;14.92;44.25;100850.41;5107405;28;20053;-81
2022/04/20 11:02:03;;;;;;;3.72;2.60;;;;;;;15.50;45.31;100851.91;5108014;28;20375;-81
2022/04/20 11:04:50;;;;;;;4.45;2.83;;;;;;;15.94;46.35;100837.97;5106675;28;20479;-81
2022/04/20 11:07:56;;;;;;;3.70;2.88;;;;;;;15.96;46.76;100841.41;5109379;28;20058;-81
2022/04/20 11:20:29;;;;;;;3.17;2.78;;;;;;;15.66;45.58;100832.84;5110173;28;20055;-81
2022/04/20 11:23:19;;;;;;;3.88;3.10;;;;;;;16.50;45.19;100829.63;5105983;28;20058;-81
2022/04/20 11:26:11;;;;;;;3.00;2.70;;;;;;;16.92;44.56;100822.56;5107252;28;20028;-81
2022/04/20 11:29:48;;;;;;;4.35;2.78;;;;;;;16.57;43.79;100819.66;5107745;28;20456;-85
2022/04/20 11:32:40;;;;;;;2.80;2.60;;;;;;;15.94;43.75;100820.34;5046993;28;20032;-80
2022/04/20 11:35:28;;;;;;;5.35;3.40;;;;;;;16.02;45.44;100806.81;5081352;28;20062;-83
2022/04/20 11:38:18;;;;;;;4.00;3.03;;;;;;;16.14;45.82;100812.50;5084821;28;20021;-85
2022/04/20 11:41:05;;;;;;;3.15;2.67;;;;;;;16.24;45.25;100805.94;5074650;28;20082;-82
2022/04/20 11:43:51;;;;;;;5.20;3.20;;;;;;;16.13;44.54;100802.00;5099671;28;20117;-79
2022/04/20 11:46:43;;;;;;;5.45;3.20;;;;;;;16.43;44.52;100800.84;5083995;28;20024;-80
2022/04/20 11:49:40;;;;;;;4.20;3.72;;;;;;;16.37;44.49;100798.38;5096639;28;20027;-80
2022/04/20 11:52:26;;;;;;;3.95;3.55;;;;;;;16.27;44.64;100792.59;5087266;28;20557;-78
2022/04/20 11:55:12;;;;;;;4.07;3.30;;;;;;;16.39;44.69;100785.97;5098933;28;20040;-78
2022/04/20 11:58:12;;;;;;;4.00;3.03;;;;;;;16.26;43.49;100790.88;5101466;28;20024;-80
2022/04/20 12:01:05;;;;;;;5.50;3.65;;;;;;;15.97;45.16;100799.09;5098598;28;20047;-79
2022/04/20 12:03:55;;;;;;;4.07;3.10;;;;;;;16.25;44.66;100789.16;5064466;28;20021;-80
2022/04/20 12:06:46;;;;;;;3.97;3.20;;;;;;;16.89;43.07;100784.78;5094248;28;20024;-78
2022/04/20 12:09:38;;;;;;;4.05;3.17;;;;;;;16.76;43.44;100779.13;5081306;28;20115;-80
2022/04/20 12:12:24;;;;;;;5.88;3.60;;;;;;;16.72;43.76;100784.63;5094790;28;20472;-79
2022/04/20 12:15:10;;;;;;;7.55;3.30;;;;;;;16.85;43.65;100783.19;5093898;28;20016;-78
2022/04/20 12:17:56;;;;;;;6.25;3.20;;;;;;;16.50;43.01;100784.66;5094189;28;20032;-79
2022/04/20 12:20:46;;;;;;;8.10;3.55;;;;;;;16.92;43.14;100784.66;5094884;28;20521;-79
2022/04/20 12:23:36;;;;;;;10.27;5.10;;;;;;;16.81;43.22;100778.97;5093923;28;20070;-79
2022/04/20 12:26:28;;;;;;;5.97;3.20;;;;;;;16.88;42.29;100773.34;5093842;28;20467;-78
2022/04/20 12:29:18;;;;;;;4.80;3.20;;;;;;;16.01;42.52;100761.06;5079944;28;20047;-78
2022/04/20 12:32:05;;;;;;;5.95;3.30;;;;;;;16.34;43.52;100762.34;5093630;28;20032;-78
2022/04/20 12:34:59;;;;;;;4.00;3.50;;;;;;;16.39;43.50;100767.47;5086261;28;20040;-79
2022/04/20 12:37:54;;;;;;;3.25;2.85;;;;;;;16.34;44.08;100769.41;5098158;28;20019;-78
2022/04/20 12:40:40;;;;;;;3.72;3.00;;;;;;;16.65;43.56;100775.22;5094647;28;20107;-81
2022/04/20 12:43:33;;;;;;;3.83;3.38;;;;;;;16.39;44.88;100773.59;5093462;28;20024;-74
2022/04/20 12:46:19;;;;;;;4.65;3.47;;;;;;;16.25;44.83;100770.66;5093863;28;20129;-73
2022/04/20 12:49:04;;;;;;;4.25;3.40;;;;;;;16.47;44.79;100774.19;5093531;28;20119;-73
2022/04/20 12:51:51;;;;;;;4.57;3.50;;;;;;;16.22;45.10;100760.19;5080185;28;20020;-73
2022/04/20 12:54:37;;;;;;;3.35;3.05;;;;;;;16.26;45.77;100764.44;5093602;28;20428;-73
2022/04/20 13:03:40;;;;;;;3.78;3.22;;;;;;;16.08;46.44;100756.38;5093486;28;20031;-74
2022/04/20 13:06:25;;;;;;;7.18;3.50;;;;;;;16.34;47.46;100761.47;5094111;28;20479;-73
2022/04/20 13:09:11;;;;;;;5.75;3.33;;;;;;;16.17;46.92;100756.88;5092058;28;20055;-74
2022/04/20 13:12:00;;;;;;;5.18;3.47;;;;;;;16.36;46.95;100754.38;5092828;28;20020;-74
2022/04/20 13:14:46;;;;;;;4.50;3.25;;;;;;;16.06;47.37;100745.00;5093085;28;20021;-75
2022/04/20 13:17:32;;;;;;;4.95;3.00;;;;;;;15.84;48.28;100738.84;5093365;28;20032;-75
2022/04/20 13:20:19;;;;;;;5.10;3.25;;;;;;;15.78;49.22;100736.41;5092981;28;20096;-75
2022/04/20 13:23:05;;;;;;;3.55;3.25;;;;;;;15.08;51.25;100750.47;5092526;28;20149;-75
2022/04/20 13:28:55;;;;;;;4.45;3.30;;;;;;;15.35;52.25;100747.72;5093288;28;20024;-75
2022/04/20 13:31:43;;;;;;;5.72;3.78;;;;;;;15.38;53.22;100738.84;5092502;28;20533;-75
2022/04/20 13:34:29;;;;;;;7.07;4.97;;;;;;;15.58;52.48;100744.22;5092208;28;20044;-74
2022/04/20 13:37:14;;;;;;;4.50;3.03;;;;;;;15.10;53.76;100743.38;5092648;28;20028;-74
2022/04/20 13:40:00;;;;;;;6.25;3.35;;;;;;;14.70;54.53;100743.84;5093428;28;20036;-75